createdAt,value
2018-10-17T00:01:57.179Z,13.70
2018-10-17T00:04:25.721Z,13.28
2018-10-17T00:06:54.330Z,13.08
2018-10-17T00:09:22.829Z,13.60
2018-10-17T00:11:51.363Z,13.48
2018-10-17T00:14:19.904Z,12.15
2018-10-17T00:16:48.424Z,13.93
2018-10-17T00:19:17.016Z,11.63
2018-10-17T00:21:45.512Z,12.82
2018-10-17T00:24:14.055Z,12.20
2018-10-17T00:26:42.589Z,12.43
2018-10-17T00:29:11.182Z,12.93
2018-10-17T00:31:39.628Z,12.13
2018-10-17T00:34:08.145Z,13.25
2018-10-17T00:36:36.693Z,13.78
2018-10-17T00:39:07.212Z,15.43
2018-10-17T00:41:35.996Z,13.20
2018-10-17T00:44:04.900Z,15.28
2018-10-17T00:46:33.512Z,13.80
2018-10-17T00:49:02.114Z,16.12
2018-10-17T00:51:31.096Z,16.57
2018-10-17T00:53:59.620Z,15.45
2018-10-17T00:56:28.178Z,15.15
2018-10-17T00:59:09.023Z,17.20
2018-10-17T01:01:38.088Z,15.20
2018-10-17T01:04:07.179Z,14.53
2018-10-17T01:06:36.175Z,15.15
2018-10-17T01:09:10.867Z,13.60
2018-10-17T01:11:39.895Z,14.47
2018-10-17T01:14:08.795Z,14.45
2018-10-17T01:16:37.355Z,15.32
2018-10-17T01:19:06.356Z,12.82
2018-10-17T01:21:35.459Z,14.35
2018-10-17T01:24:04.252Z,13.20
2018-10-17T01:26:32.878Z,13.70
2018-10-17T01:29:01.477Z,14.23
2018-10-17T01:31:30.040Z,12.98
2018-10-17T01:33:58.552Z,13.75
2018-10-17T01:36:27.039Z,15.75
2018-10-17T01:38:55.589Z,13.70
2018-10-17T01:41:24.155Z,15.18
2018-10-17T01:43:52.736Z,11.50
2018-10-17T01:46:21.276Z,11.85
2018-10-17T01:48:49.851Z,11.73
2018-10-17T01:51:18.378Z,12.07
2018-10-17T01:53:46.891Z,11.73
2018-10-17T01:56:15.438Z,12.78
2018-10-17T01:58:43.947Z,13.15
2018-10-17T02:01:12.553Z,13.53
2018-10-17T02:03:41.069Z,13.75
2018-10-17T02:06:09.631Z,13.95
2018-10-17T02:08:38.181Z,12.98
2018-10-17T02:11:06.773Z,12.65
2018-10-17T02:13:35.250Z,12.85
2018-10-17T02:16:10.419Z,12.18
2018-10-17T02:18:38.936Z,11.50
2018-10-17T02:21:07.486Z,14.40
2018-10-17T02:23:36.008Z,13.38
2018-10-17T02:26:04.563Z,14.10
2018-10-17T02:28:33.104Z,13.62
2018-10-17T02:31:01.683Z,14.78
2018-10-17T02:33:30.182Z,15.50
2018-10-17T02:35:58.733Z,13.62
2018-10-17T02:38:27.277Z,14.53
2018-10-17T02:40:55.922Z,14.95
2018-10-17T02:43:24.454Z,16.02
2018-10-17T02:45:53.004Z,15.45
2018-10-17T02:48:21.531Z,14.90
2018-10-17T02:50:50.067Z,15.20
2018-10-17T02:53:18.660Z,14.80
2018-10-17T02:55:47.148Z,14.00
2018-10-17T02:58:15.693Z,13.80
2018-10-17T03:00:44.216Z,13.20
2018-10-17T03:03:12.758Z,11.68
2018-10-17T03:05:41.298Z,12.35
2018-10-17T03:08:09.834Z,12.93
2018-10-17T03:10:38.373Z,12.35
2018-10-17T03:13:06.960Z,12.98
2018-10-17T03:15:35.458Z,13.78
2018-10-17T03:18:03.983Z,13.75
2018-10-17T03:20:32.568Z,13.10
2018-10-17T03:23:01.094Z,13.50
2018-10-17T03:25:29.639Z,14.68
2018-10-17T03:27:58.232Z,12.55
2018-10-17T03:30:26.763Z,13.32
2018-10-17T03:32:55.300Z,15.40
2018-10-17T03:35:23.836Z,15.32
2018-10-17T03:37:52.389Z,14.25
2018-10-17T03:40:20.904Z,15.08
2018-10-17T03:42:49.444Z,14.80
2018-10-17T03:45:18.007Z,14.95
2018-10-17T03:47:46.551Z,12.73
2018-10-17T03:50:15.084Z,14.60
2018-10-17T03:52:43.587Z,14.47
2018-10-17T03:55:12.161Z,13.32
2018-10-17T03:57:40.661Z,13.32
2018-10-17T04:00:09.402Z,14.30
2018-10-17T04:02:38.384Z,13.10
2018-10-17T04:05:07.601Z,14.47
2018-10-17T04:07:36.187Z,13.93
2018-10-17T04:10:04.836Z,14.33
2018-10-17T04:12:33.364Z,14.78
2018-10-17T04:15:01.918Z,13.30
2018-10-17T04:17:30.444Z,13.75
2018-10-17T04:19:58.948Z,13.83
2018-10-17T04:22:27.544Z,13.53
2018-10-17T04:24:56.122Z,11.45
2018-10-17T04:27:24.704Z,14.78
2018-10-17T04:29:53.242Z,14.38
2018-10-17T04:32:21.792Z,13.00
2018-10-17T04:34:50.338Z,15.75
2018-10-17T04:37:18.895Z,16.35
2018-10-17T04:39:47.416Z,15.15
2018-10-17T04:42:15.922Z,15.60
2018-10-17T04:44:44.450Z,13.25
2018-10-17T04:47:13.034Z,13.38
2018-10-17T04:49:41.520Z,15.35
2018-10-17T04:52:10.044Z,14.15
2018-10-17T04:54:38.599Z,13.65
2018-10-17T04:57:07.168Z,12.70
2018-10-17T04:59:35.719Z,15.18
2018-10-17T05:02:04.330Z,12.85
2018-10-17T05:04:32.949Z,13.05
2018-10-17T05:07:01.439Z,12.63
2018-10-17T05:09:29.928Z,15.75
2018-10-17T05:11:58.423Z,12.65
2018-10-17T05:14:26.957Z,14.03
2018-10-17T05:16:55.493Z,12.18
2018-10-17T05:19:24.004Z,12.82
2018-10-17T05:21:52.543Z,13.43
2018-10-17T05:24:21.079Z,14.98
2018-10-17T05:26:49.676Z,14.35
2018-10-17T05:29:18.216Z,15.75
2018-10-17T05:31:46.719Z,14.78
2018-10-17T05:34:15.239Z,15.32
2018-10-17T05:36:43.843Z,13.43
2018-10-17T05:39:12.740Z,14.40
2018-10-17T05:41:41.265Z,15.00
2018-10-17T05:44:09.791Z,16.95
2018-10-17T05:46:38.360Z,14.33
2018-10-17T05:49:07.070Z,13.90
2018-10-17T05:51:35.583Z,14.75
2018-10-17T05:54:04.205Z,13.58
2018-10-17T05:56:32.740Z,15.28
2018-10-17T05:59:01.336Z,12.18
2018-10-17T06:01:29.845Z,12.88
2018-10-17T06:03:58.316Z,11.50
2018-10-17T06:06:26.904Z,14.45
2018-10-17T06:08:55.399Z,12.75
2018-10-17T06:11:23.953Z,11.45
2018-10-17T06:13:52.471Z,12.60
2018-10-17T06:16:21.071Z,15.30
2018-10-17T06:18:49.588Z,12.85
2018-10-17T06:21:18.157Z,12.63
2018-10-17T06:23:46.681Z,15.88
2018-10-17T06:26:15.238Z,13.25
2018-10-17T06:28:43.765Z,12.23
2018-10-17T06:31:12.388Z,12.03
2018-10-17T06:33:40.885Z,12.55
2018-10-17T06:36:09.420Z,10.00
2018-10-17T06:38:37.952Z,9.73
2018-10-17T06:41:07.028Z,11.15
2018-10-17T06:43:35.645Z,9.58
2018-10-17T06:46:04.216Z,10.13
2018-10-17T06:48:32.730Z,10.97
2018-10-17T06:51:01.329Z,9.93
2018-10-17T06:53:29.849Z,12.30
2018-10-17T06:55:58.379Z,9.63
2018-10-17T06:58:26.992Z,11.37
2018-10-17T07:00:55.563Z,11.00
2018-10-17T07:03:24.336Z,11.00
2018-10-17T07:05:52.896Z,9.93
2018-10-17T07:08:21.467Z,11.33
2018-10-17T07:10:50.000Z,10.67
2018-10-17T07:13:18.547Z,9.87
2018-10-17T07:15:47.118Z,10.23
2018-10-17T07:18:15.645Z,11.33
2018-10-17T07:20:44.145Z,10.30
2018-10-17T07:23:12.796Z,9.60
2018-10-17T07:25:41.271Z,9.87
2018-10-17T07:28:09.820Z,10.73
2018-10-17T07:30:38.401Z,10.03
2018-10-17T07:33:06.932Z,10.80
2018-10-17T07:35:35.472Z,9.67
2018-10-17T07:38:04.003Z,11.60
2018-10-17T07:40:32.557Z,11.00
2018-10-17T07:43:01.189Z,10.50
2018-10-17T07:45:29.734Z,9.77
2018-10-17T07:47:58.319Z,10.23
2018-10-17T07:50:26.794Z,10.00
2018-10-17T07:52:55.360Z,9.90
2018-10-17T07:55:23.876Z,8.23
2018-10-17T07:57:52.365Z,9.20
2018-10-17T08:00:21.007Z,8.97
2018-10-17T08:02:49.506Z,9.87
2018-10-17T08:05:18.057Z,9.83
2018-10-17T08:07:46.611Z,8.10
2018-10-17T08:10:15.147Z,8.77
2018-10-17T08:12:43.692Z,8.77
2018-10-17T08:15:12.221Z,8.00
2018-10-17T08:17:40.752Z,8.30
2018-10-17T08:20:10.784Z,9.37
2018-10-17T08:22:39.786Z,8.73
2018-10-17T08:25:09.818Z,10.37
2018-10-17T08:27:38.362Z,8.57
2018-10-17T08:30:08.084Z,10.63
2018-10-17T08:32:36.881Z,8.77
2018-10-17T08:35:05.681Z,8.90
2018-10-17T08:37:34.584Z,12.20
2018-10-17T08:40:02.841Z,10.10
2018-10-17T08:42:32.325Z,8.70
2018-10-17T08:45:00.877Z,8.60
2018-10-17T08:47:29.524Z,8.43
2018-10-17T08:49:58.171Z,9.93
2018-10-17T08:52:26.716Z,9.83
2018-10-17T08:54:55.200Z,9.20
2018-10-17T08:57:23.752Z,9.87
2018-10-17T08:59:52.275Z,10.10
2018-10-17T09:02:20.808Z,9.43
2018-10-17T09:04:49.411Z,9.43
2018-10-17T09:07:17.936Z,9.30
2018-10-17T09:09:46.464Z,9.67
2018-10-17T09:12:15.106Z,10.27
2018-10-17T09:14:43.615Z,10.13
2018-10-17T09:17:12.100Z,9.87
2018-10-17T09:19:40.817Z,9.67
2018-10-17T09:22:09.521Z,10.60
2018-10-17T09:24:37.736Z,9.50
2018-10-17T09:27:06.305Z,7.77
2018-10-17T09:29:34.877Z,11.00
2018-10-17T09:32:03.410Z,10.80
2018-10-17T09:34:31.985Z,10.13
2018-10-17T09:37:00.525Z,9.40
2018-10-17T09:39:29.043Z,8.33
2018-10-17T09:41:57.601Z,9.87
2018-10-17T09:44:26.418Z,9.83
2018-10-17T09:46:54.946Z,8.40
2018-10-17T09:49:23.453Z,10.47
2018-10-17T09:51:51.986Z,9.37
2018-10-17T09:54:20.519Z,10.27
2018-10-17T09:56:49.296Z,10.13
2018-10-17T09:59:17.843Z,8.43
2018-10-17T10:01:52.504Z,8.07
2018-10-17T10:04:21.333Z,8.50
2018-10-17T10:06:49.857Z,8.33
2018-10-17T10:09:18.425Z,8.47
2018-10-17T10:11:46.971Z,8.17
2018-10-17T10:14:15.498Z,8.20
2018-10-17T10:16:43.991Z,22.70
2018-10-17T10:19:12.532Z,15.70
2018-10-17T10:21:41.049Z,44.00
2018-10-17T10:24:09.739Z,19.30
2018-10-17T10:26:38.124Z,9.10
2018-10-17T10:29:06.655Z,7.40
2018-10-17T10:31:35.171Z,8.30
2018-10-17T10:34:03.700Z,7.63
2018-10-17T10:36:32.270Z,7.37
2018-10-17T10:39:00.767Z,7.77
2018-10-17T10:41:29.307Z,8.83
2018-10-17T10:43:57.860Z,7.90
2018-10-17T10:46:26.420Z,8.53
2018-10-17T10:48:54.976Z,7.97
2018-10-17T10:51:23.643Z,8.37
2018-10-17T10:53:52.035Z,9.40
2018-10-17T10:56:20.550Z,8.13
2018-10-17T10:58:49.140Z,8.67
2018-10-17T11:01:17.672Z,8.50
2018-10-17T11:03:46.217Z,7.47
2018-10-17T11:06:14.737Z,8.13
2018-10-17T11:08:43.416Z,8.23
2018-10-17T11:11:11.989Z,7.50
2018-10-17T11:13:40.451Z,8.53
2018-10-17T11:16:08.980Z,7.63
2018-10-17T11:18:37.515Z,7.43
2018-10-17T11:21:06.099Z,8.50
2018-10-17T11:23:34.594Z,7.70
2018-10-17T11:26:03.150Z,8.80
2018-10-17T11:28:31.696Z,8.50
2018-10-17T11:31:00.248Z,9.20
2018-10-17T11:33:28.756Z,9.20
2018-10-17T11:35:57.296Z,7.10
2018-10-17T11:38:25.816Z,8.70
2018-10-17T11:40:54.541Z,7.80
2018-10-17T11:43:23.071Z,7.80
2018-10-17T11:45:51.644Z,7.63
2018-10-17T11:48:20.198Z,7.43
2018-10-17T11:50:48.734Z,7.47
2018-10-17T11:53:17.394Z,9.27
2018-10-17T11:55:45.850Z,8.50
2018-10-17T11:58:14.379Z,7.93
2018-10-17T12:00:42.936Z,8.80
2018-10-17T12:03:11.575Z,9.10
2018-10-17T12:05:40.597Z,7.90
2018-10-17T12:08:08.669Z,8.20
2018-10-17T12:10:37.251Z,7.97
2018-10-17T12:13:06.023Z,8.03
2018-10-17T12:15:34.535Z,7.80
2018-10-17T12:18:03.160Z,8.00
2018-10-17T12:20:31.632Z,7.40
2018-10-17T12:23:00.152Z,7.50
2018-10-17T12:25:28.729Z,8.17
2018-10-17T12:27:57.303Z,6.90
2018-10-17T12:30:25.803Z,7.83
2018-10-17T12:32:54.338Z,8.50
2018-10-17T12:35:22.882Z,7.03
2018-10-17T12:37:51.385Z,6.73
2018-10-17T12:40:20.076Z,8.07
2018-10-17T12:42:48.564Z,6.93
2018-10-17T12:45:17.107Z,6.93
2018-10-17T12:47:45.685Z,6.97
2018-10-17T12:50:14.215Z,7.40
2018-10-17T12:52:42.773Z,7.87
2018-10-17T12:55:11.235Z,7.03
2018-10-17T12:57:39.711Z,7.23
2018-10-17T13:00:09.533Z,6.70
2018-10-17T13:02:38.366Z,7.23
2018-10-17T13:05:08.076Z,6.97
2018-10-17T13:07:36.608Z,6.77
2018-10-17T13:10:05.695Z,6.50
2018-10-17T13:12:34.215Z,6.20
2018-10-17T13:15:02.850Z,6.37
2018-10-17T13:17:31.293Z,6.50
2018-10-17T13:19:59.848Z,6.53
2018-10-17T13:22:28.341Z,7.30
2018-10-17T13:24:56.862Z,6.00
2018-10-17T13:27:25.332Z,7.73
2018-10-17T13:29:53.879Z,5.90
2018-10-17T13:32:22.432Z,6.77
2018-10-17T13:34:50.966Z,6.83
2018-10-17T13:37:19.661Z,5.50
2018-10-17T13:39:48.083Z,6.43
2018-10-17T13:42:16.629Z,6.93
2018-10-17T13:44:45.156Z,7.03
2018-10-17T13:47:13.754Z,6.40
2018-10-17T13:49:42.328Z,6.90
2018-10-17T13:52:10.802Z,6.47
2018-10-17T13:54:39.336Z,6.30
2018-10-17T13:57:07.881Z,6.47
2018-10-17T13:59:43.016Z,6.20
2018-10-17T14:02:11.507Z,6.33
2018-10-17T14:04:40.113Z,5.50
2018-10-17T14:07:08.676Z,6.10
2018-10-17T14:09:37.217Z,6.70
2018-10-17T14:12:06.551Z,5.80
2018-10-17T14:14:35.079Z,6.83
2018-10-17T14:17:03.702Z,6.20
2018-10-17T14:19:32.208Z,5.50
2018-10-17T14:22:00.823Z,6.10
2018-10-17T14:24:29.395Z,7.37
2018-10-17T14:26:57.972Z,7.10
2018-10-17T14:29:26.513Z,5.80
2018-10-17T14:31:55.503Z,6.93
2018-10-17T14:34:24.063Z,6.90
2018-10-17T14:36:52.583Z,6.30
2018-10-17T14:39:21.252Z,6.47
2018-10-17T14:41:49.668Z,8.90
2018-10-17T14:44:18.182Z,7.53
2018-10-17T14:46:46.743Z,7.90
2018-10-17T14:49:15.268Z,7.30
2018-10-17T14:51:43.751Z,6.90
2018-10-17T14:54:12.288Z,7.23
2018-10-17T14:56:40.812Z,7.60
2018-10-17T14:59:09.420Z,7.20
2018-10-17T15:01:37.877Z,6.70
2018-10-17T15:04:06.419Z,7.43
2018-10-17T15:06:34.915Z,8.63
2018-10-17T15:09:03.560Z,9.00
2018-10-17T15:11:32.136Z,8.40
2018-10-17T15:14:00.800Z,7.90
2018-10-17T15:16:29.340Z,8.23
2018-10-17T15:18:57.852Z,6.90
2018-10-17T15:21:26.373Z,7.97
2018-10-17T15:23:54.928Z,8.37
2018-10-17T15:26:23.443Z,8.37
2018-10-17T15:28:52.000Z,8.17
2018-10-17T15:31:20.583Z,7.37
2018-10-17T15:33:49.067Z,8.30
2018-10-17T15:36:17.684Z,7.70
2018-10-17T15:38:46.106Z,7.90
2018-10-17T15:41:14.634Z,8.10
2018-10-17T15:43:46.889Z,7.80
2018-10-17T15:46:15.436Z,8.00
2018-10-17T15:48:43.951Z,7.80
2018-10-17T15:51:12.531Z,7.77
2018-10-17T15:53:41.181Z,8.53
2018-10-17T15:56:09.635Z,7.50
2018-10-17T15:58:38.198Z,7.33
2018-10-17T16:01:06.752Z,7.63
2018-10-17T16:03:35.295Z,7.77
2018-10-17T16:06:03.872Z,7.83
2018-10-17T16:08:32.388Z,7.87
2018-10-17T16:11:00.892Z,7.87
2018-10-17T16:13:29.427Z,7.03
2018-10-17T16:15:57.995Z,8.67
2018-10-17T16:18:26.494Z,7.83
2018-10-17T16:20:55.004Z,7.97
2018-10-17T16:23:23.656Z,8.53
2018-10-17T16:25:52.144Z,7.90
2018-10-17T16:28:20.693Z,8.17
2018-10-17T16:30:49.308Z,8.77
2018-10-17T16:33:17.779Z,7.40
2018-10-17T16:35:46.310Z,8.97
2018-10-17T16:38:14.905Z,8.60
2018-10-17T16:40:43.391Z,8.30
2018-10-17T16:43:11.927Z,9.43
2018-10-17T16:45:40.435Z,8.83
2018-10-17T16:48:08.987Z,8.57
2018-10-17T16:50:37.656Z,8.90
2018-10-17T16:53:06.007Z,7.90
2018-10-17T16:55:34.531Z,8.57
2018-10-17T16:58:03.159Z,9.43
2018-10-17T17:00:31.573Z,8.90
2018-10-17T17:03:00.112Z,9.07
2018-10-17T17:05:28.633Z,9.37
2018-10-17T17:07:57.174Z,9.23
2018-10-17T17:10:25.858Z,9.20
2018-10-17T17:12:54.339Z,10.37
2018-10-17T17:15:22.981Z,9.30
2018-10-17T17:17:51.516Z,9.77
2018-10-17T17:20:20.112Z,8.63
2018-10-17T17:22:48.734Z,9.03
2018-10-17T17:25:17.124Z,8.47
2018-10-17T17:27:45.636Z,9.70
2018-10-17T17:30:17.241Z,9.60
2018-10-17T17:32:46.645Z,9.23
2018-10-17T17:35:15.244Z,8.80
2018-10-17T17:37:44.050Z,9.67
2018-10-17T17:40:13.755Z,9.43
2018-10-17T17:42:42.317Z,8.90
2018-10-17T17:45:11.190Z,9.27
2018-10-17T17:47:40.047Z,10.00
2018-10-17T17:50:09.470Z,9.30
2018-10-17T17:52:38.114Z,9.13
2018-10-17T17:55:07.844Z,9.90
2018-10-17T17:57:36.631Z,9.70
2018-10-17T18:00:05.539Z,11.70
2018-10-17T18:02:34.088Z,10.33
2018-10-17T18:05:02.843Z,11.70
2018-10-17T18:07:31.824Z,10.77
2018-10-17T18:10:00.412Z,11.40
2018-10-17T18:12:28.975Z,11.80
2018-10-17T18:14:57.500Z,12.13
2018-10-17T18:17:26.047Z,12.73
2018-10-17T18:19:54.610Z,11.17
2018-10-17T18:22:23.133Z,11.53
2018-10-17T18:24:51.635Z,12.70
2018-10-17T18:27:22.181Z,11.67
2018-10-17T18:29:50.848Z,12.50
2018-10-17T18:32:19.936Z,10.93
2018-10-17T18:34:48.504Z,11.90
2018-10-17T18:37:17.023Z,11.77
2018-10-17T18:39:45.596Z,12.43
2018-10-17T18:42:14.120Z,12.40
2018-10-17T18:44:42.644Z,11.97
2018-10-17T18:47:11.199Z,12.80
2018-10-17T18:49:39.708Z,12.30
2018-10-17T18:52:08.236Z,13.57
2018-10-17T18:54:36.776Z,14.93
2018-10-17T18:57:05.415Z,15.03
2018-10-17T18:59:33.920Z,13.40
2018-10-17T19:02:02.425Z,14.40
2018-10-17T19:04:30.991Z,14.33
2018-10-17T19:06:59.528Z,11.87
2018-10-17T19:09:28.041Z,13.23
2018-10-17T19:11:56.564Z,11.70
2018-10-17T19:14:25.101Z,19.40
2018-10-17T19:16:53.704Z,23.27
2018-10-17T19:19:22.231Z,24.50
2018-10-17T19:21:50.757Z,27.20
2018-10-17T19:24:19.289Z,22.50
2018-10-17T19:26:47.818Z,25.50
2018-10-17T19:29:16.349Z,21.57
2018-10-17T19:31:44.844Z,21.00
2018-10-17T19:34:16.182Z,22.93
2018-10-17T19:36:44.936Z,18.70
2018-10-17T19:39:13.788Z,20.70
2018-10-17T19:41:43.054Z,18.60
2018-10-17T19:44:11.712Z,16.70
2018-10-17T19:46:40.284Z,17.43
2018-10-17T19:49:08.946Z,19.40
2018-10-17T19:51:37.500Z,18.57
2018-10-17T19:54:06.582Z,18.70
2018-10-17T19:56:35.085Z,19.43
2018-10-17T19:59:03.631Z,17.37
2018-10-17T20:01:32.163Z,18.30
2018-10-17T20:04:00.716Z,16.53
2018-10-17T20:06:29.279Z,16.67
2018-10-17T20:08:57.816Z,15.37
2018-10-17T20:11:26.323Z,15.40
2018-10-17T20:13:54.857Z,16.20
2018-10-17T20:16:23.359Z,15.17
2018-10-17T20:18:51.851Z,15.37
2018-10-17T20:21:20.378Z,13.87
2018-10-17T20:23:48.872Z,18.00
2018-10-17T20:26:17.373Z,17.40
2018-10-17T20:28:45.875Z,18.03
2018-10-17T20:31:14.399Z,17.20
2018-10-17T20:33:42.950Z,18.80
2018-10-17T20:36:11.479Z,16.57
2018-10-17T20:38:40.062Z,18.30
2018-10-17T20:41:08.555Z,18.77
2018-10-17T20:43:37.071Z,16.20
2018-10-17T20:46:05.565Z,18.87
2018-10-17T20:48:34.064Z,18.07
2018-10-17T20:51:02.616Z,17.10
2018-10-17T20:53:31.165Z,16.40
2018-10-17T20:55:59.702Z,17.17
2018-10-17T20:58:28.210Z,17.07
2018-10-17T21:00:56.699Z,18.20
2018-10-17T21:03:25.219Z,18.57
2018-10-17T21:05:53.763Z,17.47
2018-10-17T21:08:22.390Z,15.20
2018-10-17T21:10:50.890Z,15.40
2018-10-17T21:13:19.403Z,15.00
2018-10-17T21:15:47.912Z,16.37
2018-10-17T21:18:16.460Z,15.57
2018-10-17T21:20:44.946Z,16.77
2018-10-17T21:23:13.496Z,16.10
2018-10-17T21:25:42.039Z,13.32
2018-10-17T21:28:10.572Z,14.70
2018-10-17T21:30:39.072Z,16.90
2018-10-17T21:33:07.860Z,15.20
2018-10-17T21:35:36.379Z,16.35
2018-10-17T21:38:05.028Z,16.23
2018-10-17T21:40:33.557Z,17.02
2018-10-17T21:43:02.117Z,16.53
2018-10-17T21:45:30.608Z,16.60
2018-10-17T21:47:59.159Z,17.40
2018-10-17T21:50:27.707Z,17.23
2018-10-17T21:52:56.248Z,19.40
2018-10-17T21:55:24.767Z,16.45
2018-10-17T21:57:53.325Z,17.15
2018-10-17T22:00:21.873Z,15.60
2018-10-17T22:02:50.495Z,17.60
2018-10-17T22:05:19.081Z,18.00
2018-10-17T22:07:47.596Z,17.55
2018-10-17T22:10:16.172Z,16.02
2018-10-17T22:12:44.717Z,14.98
2018-10-17T22:15:13.298Z,15.43
2018-10-17T22:17:41.804Z,15.60
2018-10-17T22:20:10.447Z,16.42
2018-10-17T22:22:38.870Z,16.07
2018-10-17T22:25:07.853Z,17.23
2018-10-17T22:27:36.330Z,16.42
2018-10-17T22:30:05.706Z,17.23
2018-10-17T22:32:34.212Z,16.62
2018-10-17T22:35:02.749Z,17.15
2018-10-17T22:37:31.284Z,15.90
2018-10-17T22:39:59.800Z,15.60
2018-10-17T22:42:28.325Z,15.90
2018-10-17T22:44:56.837Z,16.95
2018-10-17T22:47:25.351Z,17.75
2018-10-17T22:49:53.951Z,16.32
2018-10-17T22:52:22.455Z,18.00
2018-10-17T22:54:50.998Z,17.67
2018-10-17T22:57:19.531Z,16.20
2018-10-17T22:59:48.116Z,16.55
2018-10-17T23:02:16.670Z,15.38
2018-10-17T23:04:45.176Z,16.52
2018-10-17T23:07:13.678Z,15.75
2018-10-17T23:09:42.211Z,12.80
2018-10-17T23:12:10.717Z,14.10
2018-10-17T23:14:39.256Z,16.42
2018-10-17T23:17:07.791Z,12.75
2018-10-17T23:19:36.283Z,16.73
2018-10-17T23:22:05.049Z,16.77
2018-10-17T23:24:33.571Z,16.70
2018-10-17T23:27:02.069Z,15.63
2018-10-17T23:29:30.567Z,14.40
2018-10-17T23:31:59.088Z,14.43
2018-10-17T23:34:27.604Z,14.60
2018-10-17T23:36:56.102Z,14.07
2018-10-17T23:39:24.676Z,13.22
2018-10-17T23:41:53.206Z,14.98
2018-10-17T23:44:21.748Z,15.90
2018-10-17T23:46:50.272Z,15.88
2018-10-17T23:49:18.784Z,14.28
2018-10-17T23:51:47.276Z,15.10
2018-10-17T23:54:15.925Z,16.73
2018-10-17T23:56:44.332Z,15.40
2018-10-17T23:59:12.860Z,14.28
